Time;durP1;ratioP1;P1;durP2;ratioP2;P2;SDS_P1;SDS_P2;PMS_P1;PMS_P2;Temp;Humidity;BMP_temperature;BMP_pressure;BME280_temperature;BME280_humidity;BME280_pressure;Samples;Min_cycle;Max_cycle;Signal;HPM_P1;HPM_P2
2022/07/10 00:01:56;;;;;;;;;;;18.20;66.90;;;;;;5045793;27;90172;-50
2022/07/10 00:04:22;;;;;;;;;;;18.20;66.90;;;;;;5043503;28;87607;-48
2022/07/10 00:06:47;;;;;;;;;;;18.20;67.00;;;;;;5043668;28;87655;-48
2022/07/10 00:09:13;;;;;;;;;;;18.20;67.00;;;;;;5043174;28;87966;-49
2022/07/10 00:11:40;;;;;;;;;;;18.20;66.90;;;;;;5043614;27;86879;-48
2022/07/10 00:14:05;;;;;;;;;;;18.20;66.80;;;;;;5043423;27;87108;-48
2022/07/10 00:16:31;;;;;;;;;;;18.20;66.90;;;;;;5043646;28;86571;-49
2022/07/10 00:18:56;;;;;;;;;;;18.20;67.00;;;;;;5043533;28;86831;-48
2022/07/10 00:21:22;;;;;;;;;;;18.20;67.00;;;;;;5046056;28;86938;-48
2022/07/10 00:23:47;;;;;;;;;;;18.20;66.90;;;;;;5042800;27;88500;-48
2022/07/10 00:26:13;;;;;;;;;;;18.10;66.80;;;;;;5043331;27;87302;-50
2022/07/10 00:28:38;;;;;;;;;;;18.10;67.40;;;;;;5042827;27;89358;-48
2022/07/10 00:31:04;;;;;;;;;;;18.10;66.80;;;;;;5043354;28;86995;-50
2022/07/10 00:33:31;;;;;;;;;;;18.20;67.00;;;;;;5042952;27;87464;-48
2022/07/10 00:35:57;;;;;;;;;;;18.10;66.70;;;;;;5042607;27;87941;-48
2022/07/10 00:38:23;;;;;;;;;;;18.10;66.80;;;;;;5043015;28;87127;-49
2022/07/10 00:40:49;;;;;;;;;;;18.20;66.80;;;;;;5043579;27;87256;-47
2022/07/10 00:43:14;;;;;;;;;;;18.10;66.70;;;;;;5045611;27;88090;-50
2022/07/10 00:45:40;;;;;;;;;;;18.10;66.80;;;;;;5043095;28;87507;-48
2022/07/10 00:48:05;;;;;;;;;;;18.10;66.70;;;;;;5041172;27;88882;-48
2022/07/10 00:50:33;;;;;;;;;;;18.10;66.90;;;;;;5042577;27;87179;-47
2022/07/10 00:52:58;;;;;;;;;;;18.10;66.80;;;;;;5042132;27;88965;-49
2022/07/10 00:55:24;;;;;;;;;;;18.10;66.90;;;;;;5041937;28;88153;-48
2022/07/10 00:57:50;;;;;;;;;;;18.00;66.70;;;;;;5042786;27;87144;-49
2022/07/10 01:00:15;;;;;;;;;;;18.00;66.80;;;;;;5042804;28;87426;-48
2022/07/10 01:02:42;;;;;;;;;;;18.10;66.70;;;;;;5042136;27;89772;-51
2022/07/10 01:05:08;;;;;;;;;;;18.00;66.80;;;;;;5046002;27;86149;-47
2022/07/10 01:07:33;;;;;;;;;;;18.00;66.70;;;;;;5042360;27;88010;-49
2022/07/10 01:09:59;;;;;;;;;;;18.00;67.00;;;;;;5042632;28;87189;-48
2022/07/10 01:12:27;;;;;;;;;;;18.00;66.70;;;;;;5041677;27;88854;-49
2022/07/10 01:14:53;;;;;;;;;;;18.00;67.20;;;;;;5042112;27;88068;-48
2022/07/10 01:17:19;;;;;;;;;;;18.00;66.60;;;;;;5042343;27;87040;-48
2022/07/10 01:19:44;;;;;;;;;;;18.00;66.60;;;;;;5042712;27;87692;-48
2022/07/10 01:22:10;;;;;;;;;;;18.00;66.50;;;;;;5042220;27;88149;-47
2022/07/10 01:24:36;;;;;;;;;;;17.90;66.50;;;;;;5042529;28;87114;-47
2022/07/10 01:27:01;;;;;;;;;;;18.00;66.90;;;;;;5044663;27;87977;-48
2022/07/10 01:29:28;;;;;;;;;;;17.90;66.80;;;;;;5042986;27;86404;-48
2022/07/10 01:31:54;;;;;;;;;;;17.90;67.00;;;;;;5042429;27;86892;-48
2022/07/10 01:34:19;;;;;;;;;;;17.90;66.70;;;;;;5041798;27;88391;-48
2022/07/10 01:36:45;;;;;;;;;;;17.90;66.80;;;;;;5041667;28;88088;-47
2022/07/10 01:39:10;;;;;;;;;;;17.90;66.60;;;;;;5042414;27;88536;-47
2022/07/10 01:41:36;;;;;;;;;;;17.90;66.60;;;;;;5041983;28;88282;-47
2022/07/10 01:44:02;;;;;;;;;;;17.90;66.60;;;;;;5041817;27;87166;-48
2022/07/10 01:46:27;;;;;;;;;;;17.90;66.60;;;;;;5040314;28;90389;-50
2022/07/10 01:48:53;;;;;;;;;;;17.90;66.60;;;;;;5044345;28;89383;-48
2022/07/10 01:51:19;;;;;;;;;;;17.90;66.60;;;;;;5042050;27;89097;-47
2022/07/10 01:53:44;;;;;;;;;;;17.80;66.60;;;;;;5042263;27;88623;-47
2022/07/10 01:56:11;;;;;;;;;;;17.80;66.60;;;;;;5042057;27;87105;-48
2022/07/10 01:58:36;;;;;;;;;;;17.80;66.60;;;;;;5042123;27;86945;-47
2022/07/10 02:01:02;;;;;;;;;;;17.80;66.50;;;;;;5040944;27;89090;-47
2022/07/10 02:06:12;;;;;;;;;;;17.80;66.60;;;;;;5044710;28;86923;-47
2022/07/10 02:08:37;;;;;;;;;;;17.80;66.60;;;;;;5045277;28;88119;-48
2022/07/10 02:11:03;;;;;;;;;;;17.80;66.60;;;;;;5048300;28;87137;-47
2022/07/10 02:13:28;;;;;;;;;;;17.80;66.60;;;;;;5045204;28;87713;-49
2022/07/10 02:15:54;;;;;;;;;;;17.80;66.60;;;;;;5045324;28;87042;-48
2022/07/10 02:18:20;;;;;;;;;;;17.80;66.60;;;;;;5045714;27;87873;-48
2022/07/10 02:20:46;;;;;;;;;;;17.80;66.50;;;;;;5044997;28;88185;-48
2022/07/10 02:23:12;;;;;;;;;;;17.70;66.60;;;;;;5045213;27;87121;-47
2022/07/10 02:25:37;;;;;;;;;;;17.70;66.60;;;;;;5044723;27;87960;-48
2022/07/10 02:28:03;;;;;;;;;;;17.70;66.60;;;;;;5044749;28;87920;-48
2022/07/10 02:30:28;;;;;;;;;;;17.70;66.70;;;;;;5047933;27;87134;-48
2022/07/10 02:32:54;;;;;;;;;;;17.70;66.60;;;;;;5044482;28;88120;-47
2022/07/10 02:35:19;;;;;;;;;;;17.70;66.70;;;;;;5045150;28;86946;-48
2022/07/10 02:37:45;;;;;;;;;;;17.60;66.70;;;;;;5044939;27;87562;-49
2022/07/10 02:40:10;;;;;;;;;;;17.60;66.70;;;;;;5044745;28;88062;-48
2022/07/10 02:42:36;;;;;;;;;;;17.60;66.80;;;;;;5045344;27;86915;-48
2022/07/10 02:45:02;;;;;;;;;;;17.60;66.80;;;;;;5044961;27;86996;-48
2022/07/10 02:47:28;;;;;;;;;;;17.60;66.90;;;;;;5043857;27;90800;-49
2022/07/10 02:49:53;;;;;;;;;;;17.60;66.70;;;;;;5043847;28;88053;-48
2022/07/10 02:52:19;;;;;;;;;;;17.60;66.80;;;;;;5047189;27;90023;-49
2022/07/10 02:54:44;;;;;;;;;;;17.60;66.70;;;;;;5044732;28;87126;-49
2022/07/10 02:57:10;;;;;;;;;;;17.60;66.80;;;;;;5044378;27;88773;-48
2022/07/10 02:59:35;;;;;;;;;;;17.60;66.90;;;;;;5044252;28;88040;-49
2022/07/10 03:02:01;;;;;;;;;;;17.50;66.70;;;;;;5044381;27;87056;-49
2022/07/10 03:04:27;;;;;;;;;;;17.50;66.80;;;;;;5044651;27;87483;-50
2022/07/10 03:06:53;;;;;;;;;;;17.60;66.80;;;;;;5044897;27;87202;-49
2022/07/10 03:09:18;;;;;;;;;;;17.50;66.60;;;;;;5044497;27;87106;-49
2022/07/10 03:11:44;;;;;;;;;;;17.50;66.80;;;;;;5044361;27;86986;-48
2022/07/10 03:14:09;;;;;;;;;;;17.50;66.90;;;;;;5046553;27;88949;-49
2022/07/10 03:16:35;;;;;;;;;;;17.50;66.80;;;;;;5043035;27;88566;-49
2022/07/10 03:19:00;;;;;;;;;;;17.50;66.80;;;;;;5044014;28;87906;-48
2022/07/10 03:21:26;;;;;;;;;;;17.50;66.80;;;;;;5044353;28;87160;-49
2022/07/10 03:23:51;;;;;;;;;;;17.50;66.80;;;;;;5044529;28;87836;-49
2022/07/10 03:26:17;;;;;;;;;;;17.50;66.70;;;;;;5043532;27;88533;-49
2022/07/10 03:28:42;;;;;;;;;;;17.50;66.60;;;;;;5043875;27;87006;-48
2022/07/10 03:31:08;;;;;;;;;;;17.50;66.70;;;;;;5044325;28;87552;-48
2022/07/10 03:33:33;;;;;;;;;;;17.50;66.60;;;;;;5043736;28;88083;-48
2022/07/10 03:36:01;;;;;;;;;;;17.50;66.70;;;;;;5046942;28;86998;-48
2022/07/10 03:38:27;;;;;;;;;;;17.40;66.70;;;;;;5042836;28;89163;-48
2022/07/10 03:40:52;;;;;;;;;;;17.40;66.60;;;;;;5044348;27;87085;-49
2022/07/10 03:43:18;;;;;;;;;;;17.40;66.60;;;;;;5043619;27;88602;-48
2022/07/10 03:45:43;;;;;;;;;;;17.40;66.60;;;;;;5043355;27;88178;-48
2022/07/10 03:48:09;;;;;;;;;;;17.40;66.70;;;;;;5043627;28;87187;-48
2022/07/10 03:50:34;;;;;;;;;;;17.40;66.70;;;;;;5043787;28;87392;-48
2022/07/10 03:53:00;;;;;;;;;;;17.40;66.80;;;;;;5043448;27;90083;-48
2022/07/10 03:55:26;;;;;;;;;;;17.40;66.80;;;;;;5044112;27;86956;-48
2022/07/10 03:57:54;;;;;;;;;;;17.30;66.80;;;;;;5046375;28;87030;-49
2022/07/10 04:00:26;;;;;;;;;;;17.40;66.80;;;;;;5043748;27;87120;-49
2022/07/10 04:02:56;;;;;;;;;;;17.30;66.60;;;;;;5042978;27;88549;-48
2022/07/10 04:05:22;;;;;;;;;;;17.40;66.60;;;;;;5043313;27;88184;-49
2022/07/10 04:07:47;;;;;;;;;;;17.40;66.60;;;;;;5043675;27;87118;-49
2022/07/10 04:10:13;;;;;;;;;;;17.30;66.50;;;;;;5043691;27;87271;-48
2022/07/10 04:12:38;;;;;;;;;;;17.40;66.60;;;;;;5043200;28;87924;-48
2022/07/10 04:15:04;;;;;;;;;;;17.30;66.70;;;;;;5043526;28;87166;-49
2022/07/10 04:17:32;;;;;;;;;;;17.40;66.60;;;;;;5043148;27;89299;-48
2022/07/10 04:19:58;;;;;;;;;;;17.30;66.60;;;;;;5046018;27;88716;-49
2022/07/10 04:22:23;;;;;;;;;;;17.30;66.50;;;;;;5043469;27;87075;-49
2022/07/10 04:24:50;;;;;;;;;;;17.30;66.60;;;;;;5043052;28;88189;-48
2022/07/10 04:27:16;;;;;;;;;;;17.30;66.50;;;;;;5042476;27;88026;-51
2022/07/10 04:29:42;;;;;;;;;;;17.30;66.60;;;;;;5042660;27;89856;-48
2022/07/10 04:32:08;;;;;;;;;;;17.30;66.50;;;;;;5042862;28;87234;-50
2022/07/10 04:34:33;;;;;;;;;;;17.30;66.50;;;;;;5043299;28;87196;-49
2022/07/10 04:36:59;;;;;;;;;;;17.30;66.40;;;;;;5043310;28;87443;-49
2022/07/10 04:39:25;;;;;;;;;;;17.30;66.40;;;;;;5045539;28;89536;-51
2022/07/10 04:41:50;;;;;;;;;;;17.30;67.10;;;;;;5043150;28;86990;-50
2022/07/10 04:44:16;;;;;;;;;;;17.30;66.60;;;;;;5043032;28;87790;-50
2022/07/10 04:46:41;;;;;;;;;;;17.30;66.60;;;;;;5042477;28;87232;-50
2022/07/10 04:49:07;;;;;;;;;;;17.30;66.40;;;;;;5043066;28;87494;-50
2022/07/10 04:51:32;;;;;;;;;;;17.30;66.40;;;;;;5041875;28;89228;-48
2022/07/10 04:53:58;;;;;;;;;;;17.30;66.50;;;;;;5042806;28;87161;-49
2022/07/10 04:56:23;;;;;;;;;;;17.30;66.60;;;;;;5042431;28;87556;-49
2022/07/10 04:58:49;;;;;;;;;;;17.30;66.40;;;;;;5042466;28;87310;-49
2022/07/10 05:01:14;;;;;;;;;;;17.30;66.30;;;;;;5045509;28;86966;-49
2022/07/10 05:03:40;;;;;;;;;;;17.30;66.60;;;;;;5042268;28;88194;-51
2022/07/10 05:06:05;;;;;;;;;;;17.20;66.40;;;;;;5042562;28;87516;-50
2022/07/10 05:08:31;;;;;;;;;;;17.30;66.70;;;;;;5043068;28;87381;-51
2022/07/10 05:10:56;;;;;;;;;;;17.20;66.60;;;;;;5042092;28;87508;-50
2022/07/10 05:13:22;;;;;;;;;;;17.20;66.70;;;;;;5042458;27;87156;-51
2022/07/10 05:15:47;;;;;;;;;;;17.20;66.80;;;;;;5041618;28;88368;-50
2022/07/10 05:18:13;;;;;;;;;;;17.20;66.70;;;;;;5041680;27;89536;-49
2022/07/10 05:20:42;;;;;;;;;;;17.20;66.80;;;;;;5042321;28;87019;-49
2022/07/10 05:23:08;;;;;;;;;;;17.20;66.80;;;;;;5044578;27;88047;-48
2022/07/10 05:25:33;;;;;;;;;;;17.20;67.00;;;;;;5042380;28;87145;-48
2022/07/10 05:27:59;;;;;;;;;;;17.20;67.20;;;;;;5042396;28;87799;-50
2022/07/10 05:30:24;;;;;;;;;;;17.10;67.20;;;;;;5041671;28;87754;-48
2022/07/10 05:32:50;;;;;;;;;;;17.20;67.10;;;;;;5042757;28;86413;-48
2022/07/10 05:35:16;;;;;;;;;;;17.10;67.40;;;;;;5042335;28;87003;-50
2022/07/10 05:37:41;;;;;;;;;;;17.10;67.00;;;;;;5041687;27;88486;-48
2022/07/10 05:40:07;;;;;;;;;;;17.20;67.00;;;;;;5042608;27;88058;-49
2022/07/10 05:42:33;;;;;;;;;;;17.10;67.30;;;;;;5045467;28;89765;-49
2022/07/10 05:44:59;;;;;;;;;;;17.20;67.50;;;;;;5048223;27;88181;-51
2022/07/10 05:47:24;;;;;;;;;;;17.10;67.20;;;;;;5045353;28;87116;-51
2022/07/10 05:49:50;;;;;;;;;;;17.10;67.20;;;;;;5045056;28;88013;-48
2022/07/10 05:52:15;;;;;;;;;;;17.10;67.40;;;;;;5045703;28;87093;-49
2022/07/10 05:54:41;;;;;;;;;;;17.10;67.30;;;;;;5045658;28;87387;-51
2022/07/10 05:57:06;;;;;;;;;;;17.10;67.30;;;;;;5045868;28;87286;-50
2022/07/10 05:59:35;;;;;;;;;;;17.10;67.80;;;;;;5045590;28;87149;-48
2022/07/10 06:02:03;;;;;;;;;;;17.10;67.60;;;;;;5045363;27;89104;-51
2022/07/10 06:04:29;;;;;;;;;;;17.10;67.70;;;;;;5044301;28;88943;-48
2022/07/10 06:06:54;;;;;;;;;;;17.10;67.50;;;;;;5048485;27;87217;-51
2022/07/10 06:09:20;;;;;;;;;;;17.10;67.50;;;;;;5045272;28;88094;-48
2022/07/10 06:11:48;;;;;;;;;;;17.10;67.40;;;;;;5045451;28;87103;-49
2022/07/10 06:14:13;;;;;;;;;;;17.10;67.50;;;;;;5045307;27;87391;-49
2022/07/10 06:16:39;;;;;;;;;;;17.10;67.50;;;;;;5044791;28;88635;-49
2022/07/10 06:19:04;;;;;;;;;;;17.10;67.50;;;;;;5045609;27;87224;-50
2022/07/10 06:21:30;;;;;;;;;;;17.10;67.70;;;;;;5045904;28;87379;-49
2022/07/10 06:23:56;;;;;;;;;;;17.10;67.50;;;;;;5044639;28;88128;-48
2022/07/10 06:26:21;;;;;;;;;;;17.10;67.70;;;;;;5045018;28;87148;-50
2022/07/10 06:28:47;;;;;;;;;;;17.10;67.70;;;;;;5047003;28;87880;-50
2022/07/10 06:31:12;;;;;;;;;;;17.10;67.70;;;;;;5044872;27;87208;-49
2022/07/10 06:33:38;;;;;;;;;;;17.10;67.60;;;;;;5045108;27;87000;-51
2022/07/10 06:36:04;;;;;;;;;;;17.10;67.50;;;;;;5044796;27;88074;-49
2022/07/10 06:38:30;;;;;;;;;;;17.10;67.60;;;;;;5045070;28;87094;-51
2022/07/10 06:40:55;;;;;;;;;;;17.10;67.60;;;;;;5044993;27;87317;-50
2022/07/10 06:43:21;;;;;;;;;;;17.20;67.80;;;;;;5044675;27;88045;-50
2022/07/10 06:45:47;;;;;;;;;;;17.20;67.80;;;;;;5045689;27;86636;-49
2022/07/10 06:48:13;;;;;;;;;;;17.10;67.70;;;;;;5047137;28;87433;-50
2022/07/10 06:50:38;;;;;;;;;;;17.20;67.70;;;;;;5044607;27;87137;-51
2022/07/10 06:53:05;;;;;;;;;;;17.20;67.90;;;;;;5043148;28;87827;-51
2022/07/10 06:55:30;;;;;;;;;;;17.20;67.70;;;;;;5044368;27;88122;-49
2022/07/10 06:57:56;;;;;;;;;;;17.20;68.00;;;;;;5044802;27;87103;-49
2022/07/10 07:00:22;;;;;;;;;;;17.20;68.20;;;;;;5044305;27;88024;-49
2022/07/10 07:02:48;;;;;;;;;;;17.20;68.20;;;;;;5044108;28;87920;-50
2022/07/10 07:05:13;;;;;;;;;;;17.20;68.30;;;;;;5044539;28;87039;-51
2022/07/10 07:07:39;;;;;;;;;;;17.20;68.10;;;;;;5044596;27;87365;-49
2022/07/10 07:10:05;;;;;;;;;;;17.20;68.40;;;;;;5047674;28;87512;-51
2022/07/10 07:12:30;;;;;;;;;;;17.20;68.20;;;;;;5044340;27;87089;-49
2022/07/10 07:14:56;;;;;;;;;;;17.20;68.50;;;;;;5044077;28;88096;-48
2022/07/10 07:17:22;;;;;;;;;;;17.10;68.20;;;;;;5043632;27;88120;-49
2022/07/10 07:25:16;;;;;;;;;;;17.20;68.40;;;;;;5044316;28;87059;-49
2022/07/10 07:27:42;;;;;;;;;;;17.20;68.30;;;;;;5044041;27;87422;-50
2022/07/10 07:30:10;;;;;;;;;;;17.20;68.20;;;;;;5043959;27;88444;-50
2022/07/10 07:32:36;;;;;;;;;;;17.20;68.30;;;;;;5046852;27;87111;-49
2022/07/10 07:35:02;;;;;;;;;;;17.20;68.20;;;;;;5044335;27;87022;-50
2022/07/10 07:37:43;;;;;;;;;;;17.20;68.20;;;;;;5043692;27;87049;-49
2022/07/10 07:40:16;;;;;;;;;;;17.20;68.30;;;;;;5044017;28;87422;-49
2022/07/10 07:42:42;;;;;;;;;;;17.30;68.40;;;;;;5042774;27;89300;-48
2022/07/10 07:45:08;;;;;;;;;;;17.20;68.20;;;;;;5044012;28;87130;-48
2022/07/10 07:47:54;;;;;;;;;;;17.20;68.60;;;;;;5043520;27;87408;-51
2022/07/10 07:50:26;;;;;;;;;;;17.20;68.80;;;;;;5043116;27;88008;-49
2022/07/10 07:52:51;;;;;;;;;;;17.20;68.60;;;;;;5043765;27;86960;-50
2022/07/10 07:55:18;;;;;;;;;;;17.20;68.70;;;;;;5046406;28;87427;-50
2022/07/10 07:57:44;;;;;;;;;;;17.20;68.90;;;;;;5043580;28;87123;-48
2022/07/10 08:00:10;;;;;;;;;;;17.20;68.30;;;;;;5044107;28;88864;-49
2022/07/10 08:02:36;;;;;;;;;;;17.20;69.00;;;;;;5042580;27;89214;-51
2022/07/10 08:05:02;;;;;;;;;;;17.20;69.20;;;;;;5043420;27;87169;-50
2022/07/10 08:07:38;;;;;;;;;;;17.20;69.20;;;;;;5042607;27;89948;-49
2022/07/10 08:10:04;;;;;;;;;;;17.20;69.30;;;;;;5042935;28;89505;-50
2022/07/10 08:12:30;;;;;;;;;;;17.20;68.50;;;;;;5043273;27;87050;-51
2022/07/10 08:14:56;;;;;;;;;;;17.30;69.40;;;;;;5043593;27;87395;-51
2022/07/10 08:17:21;;;;;;;;;;;17.30;69.50;;;;;;5045855;27;89649;-50
2022/07/10 08:19:47;;;;;;;;;;;17.30;69.40;;;;;;5043429;27;87724;-50
2022/07/10 08:22:13;;;;;;;;;;;17.30;69.20;;;;;;5042593;27;89365;-53
2022/07/10 08:24:38;;;;;;;;;;;17.30;69.00;;;;;;5043881;28;86517;-49
2022/07/10 08:27:06;;;;;;;;;;;17.30;68.70;;;;;;5043345;28;87061;-50
2022/07/10 08:29:31;;;;;;;;;;;17.30;68.60;;;;;;5042845;27;89301;-49
2022/07/10 08:31:57;;;;;;;;;;;17.30;69.10;;;;;;5042690;27;88038;-53
2022/07/10 08:34:22;;;;;;;;;;;17.40;68.80;;;;;;5043215;28;88342;-49
2022/07/10 08:36:48;;;;;;;;;;;17.40;69.40;;;;;;5042984;28;88069;-51
2022/07/10 08:39:16;;;;;;;;;;;17.40;68.80;;;;;;5045802;27;87085;-48
2022/07/10 08:41:42;;;;;;;;;;;17.40;69.30;;;;;;5042528;27;89432;-50
2022/07/10 08:44:08;;;;;;;;;;;17.40;69.40;;;;;;5042806;28;86886;-49
2022/07/10 08:46:35;;;;;;;;;;;17.40;69.40;;;;;;5042731;27;87410;-50
2022/07/10 08:49:04;;;;;;;;;;;17.40;69.20;;;;;;5042967;28;86974;-50
2022/07/10 08:51:36;;;;;;;;;;;17.40;69.20;;;;;;5042811;27;87102;-52
2022/07/10 08:54:04;;;;;;;;;;;17.40;68.80;;;;;;5043192;27;86991;-52
2022/07/10 08:56:31;;;;;;;;;;;17.40;69.40;;;;;;5042137;27;89443;-49
2022/07/10 08:58:57;;;;;;;;;;;17.40;69.20;;;;;;5045615;27;86788;-50
2022/07/10 09:01:23;;;;;;;;;;;17.40;69.50;;;;;;5042195;27;88545;-52
2022/07/10 09:03:50;;;;;;;;;;;17.40;69.50;;;;;;5042543;27;87239;-51
2022/07/10 09:06:16;;;;;;;;;;;17.40;69.40;;;;;;5042431;28;89007;-52
2022/07/10 09:08:57;;;;;;;;;;;17.40;69.40;;;;;;5042077;27;89654;-51
2022/07/10 09:11:23;;;;;;;;;;;17.50;69.60;;;;;;5042798;28;87139;-48
2022/07/10 09:14:11;;;;;;;;;;;17.50;69.50;;;;;;5042818;27;88843;-50
2022/07/10 09:16:38;;;;;;;;;;;17.50;69.20;;;;;;5041804;27;89272;-52
2022/07/10 09:19:20;;;;;;;;;;;17.50;69.60;;;;;;5042260;27;87031;-49
2022/07/10 09:21:46;;;;;;;;;;;17.60;69.20;;;;;;5044287;27;88934;-50
2022/07/10 09:24:12;;;;;;;;;;;17.60;69.40;;;;;;5042444;27;87101;-50
2022/07/10 09:26:38;;;;;;;;;;;17.50;69.40;;;;;;5042416;27;87570;-49
2022/07/10 09:29:07;;;;;;;;;;;17.60;69.50;;;;;;5042077;27;87898;-49
2022/07/10 09:31:51;;;;;;;;;;;17.60;69.40;;;;;;5042339;28;87350;-51
2022/07/10 09:34:17;;;;;;;;;;;17.50;69.50;;;;;;5042525;28;87238;-49
2022/07/10 09:36:43;;;;;;;;;;;17.60;69.40;;;;;;5042198;28;88288;-49
2022/07/10 09:39:08;;;;;;;;;;;17.60;69.40;;;;;;5042793;27;86360;-49
2022/07/10 09:41:34;;;;;;;;;;;17.60;69.30;;;;;;5042234;28;86999;-51
2022/07/10 09:44:02;;;;;;;;;;;17.60;69.40;;;;;;5044536;27;89398;-53
2022/07/10 09:46:38;;;;;;;;;;;17.60;69.40;;;;;;5041231;27;87951;-51
2022/07/10 09:49:11;;;;;;;;;;;17.60;69.20;;;;;;5040327;28;88996;-49
2022/07/10 09:51:40;;;;;;;;;;;17.60;69.30;;;;;;5042225;28;87042;-52
2022/07/10 09:54:07;;;;;;;;;;;17.70;69.10;;;;;;5042001;27;87408;-50
2022/07/10 09:56:42;;;;;;;;;;;17.80;69.10;;;;;;5041725;28;88087;-51
2022/07/10 09:59:09;;;;;;;;;;;17.80;69.00;;;;;;5041806;27;87054;-50
2022/07/10 10:01:37;;;;;;;;;;;17.80;69.20;;;;;;5041930;28;87455;-50
2022/07/10 10:04:03;;;;;;;;;;;17.80;69.40;;;;;;5041824;27;88900;-51
2022/07/10 10:06:30;;;;;;;;;;;17.80;69.20;;;;;;5044715;27;87126;-51
2022/07/10 10:09:11;;;;;;;;;;;17.80;69.10;;;;;;5041538;27;88305;-51
2022/07/10 10:11:37;;;;;;;;;;;17.80;69.20;;;;;;5041047;28;88041;-50
2022/07/10 10:14:03;;;;;;;;;;;17.80;69.00;;;;;;5041649;28;88373;-51
2022/07/10 10:16:29;;;;;;;;;;;17.80;69.10;;;;;;5041173;27;89425;-51
2022/07/10 10:21:39;;;;;;;;;;;17.90;69.10;;;;;;5039540;28;87071;-50
2022/07/10 10:24:05;;;;;;;;;;;17.90;69.10;;;;;;5041315;27;87154;-50
2022/07/10 10:26:30;;;;;;;;;;;17.90;68.90;;;;;;5042953;27;87152;-54
2022/07/10 10:28:57;;;;;;;;;;;17.90;69.00;;;;;;5047961;28;87342;-51
2022/07/10 10:31:26;;;;;;;;;;;17.90;68.90;;;;;;5045035;27;87276;-51
2022/07/10 10:33:55;;;;;;;;;;;17.90;69.10;;;;;;5044498;27;87403;-52
2022/07/10 10:36:36;;;;;;;;;;;17.90;69.20;;;;;;5044268;27;88446;-51
2022/07/10 10:39:03;;;;;;;;;;;18.00;69.00;;;;;;5044989;27;87146;-49
2022/07/10 10:41:39;;;;;;;;;;;18.00;69.00;;;;;;5044559;27;88808;-50
2022/07/10 10:44:08;;;;;;;;;;;18.00;69.20;;;;;;5044256;28;87600;-50
2022/07/10 10:46:54;;;;;;;;;;;18.00;68.90;;;;;;5044463;28;87042;-51
2022/07/10 10:49:25;;;;;;;;;;;18.10;68.80;;;;;;5046560;28;89148;-49
2022/07/10 10:51:58;;;;;;;;;;;18.00;69.00;;;;;;5044661;27;86994;-53
2022/07/10 10:54:24;;;;;;;;;;;18.00;69.10;;;;;;5044827;27;88789;-50
2022/07/10 10:57:08;;;;;;;;;;;18.00;68.90;;;;;;5044402;27;87702;-50
2022/07/10 10:59:47;;;;;;;;;;;18.10;69.10;;;;;;5044638;27;87136;-50
2022/07/10 11:02:25;;;;;;;;;;;18.10;69.10;;;;;;5044064;27;87759;-50
2022/07/10 11:04:50;;;;;;;;;;;18.10;68.70;;;;;;5043854;27;88146;-49
2022/07/10 11:07:34;;;;;;;;;;;18.10;68.80;;;;;;5044704;27;87069;-50
2022/07/10 11:10:18;;;;;;;;;;;18.20;68.70;;;;;;5044541;27;87199;-49
2022/07/10 11:12:56;;;;;;;;;;;18.20;68.80;;;;;;5046922;27;88172;-50
2022/07/10 11:15:21;;;;;;;;;;;18.20;68.70;;;;;;5044217;28;87142;-51
2022/07/10 11:17:47;;;;;;;;;;;18.20;68.80;;;;;;5043938;27;87833;-50
2022/07/10 11:20:13;;;;;;;;;;;18.20;68.90;;;;;;5044904;28;86353;-50
2022/07/10 11:22:58;;;;;;;;;;;18.20;68.80;;;;;;5044067;27;88006;-50
2022/07/10 11:25:45;;;;;;;;;;;18.30;69.40;;;;;;5044177;27;88083;-51
2022/07/10 11:28:14;;;;;;;;;;;18.30;68.50;;;;;;5039382;27;88036;-52
2022/07/10 11:30:43;;;;;;;;;;;18.40;68.60;;;;;;5043918;28;89965;-51
2022/07/10 11:33:09;;;;;;;;;;;18.40;68.60;;;;;;5043946;28;88101;-53
2022/07/10 11:35:34;;;;;;;;;;;18.40;68.80;;;;;;5047101;28;87087;-51
2022/07/10 11:38:00;;;;;;;;;;;18.40;68.60;;;;;;5042875;27;87641;-52
2022/07/10 11:40:26;;;;;;;;;;;18.40;68.60;;;;;;5043780;28;87052;-54
2022/07/10 11:42:53;;;;;;;;;;;18.50;68.60;;;;;;5043883;27;88991;-50
2022/07/10 11:45:26;;;;;;;;;;;18.50;68.60;;;;;;5043981;27;86428;-49
2022/07/10 11:47:51;;;;;;;;;;;18.50;68.30;;;;;;5043378;27;87059;-50
2022/07/10 11:50:17;;;;;;;;;;;18.60;68.50;;;;;;5043449;28;86830;-52
2022/07/10 11:52:42;;;;;;;;;;;18.50;68.30;;;;;;5042671;27;88120;-53
2022/07/10 11:55:15;;;;;;;;;;;18.60;69.00;;;;;;5043624;28;87197;-52
2022/07/10 11:57:49;;;;;;;;;;;18.60;68.50;;;;;;5045943;27;89016;-53
2022/07/10 12:00:23;;;;;;;;;;;18.60;68.40;;;;;;5043645;28;87720;-51
2022/07/10 12:02:49;;;;;;;;;;;18.60;68.50;;;;;;5043635;27;87572;-52
2022/07/10 12:05:30;;;;;;;;;;;18.60;68.40;;;;;;5043271;27;88312;-52
2022/07/10 12:07:56;;;;;;;;;;;18.60;68.50;;;;;;5043850;28;87264;-52
2022/07/10 12:10:25;;;;;;;;;;;18.60;68.60;;;;;;5044169;28;86512;-53
2022/07/10 12:12:50;;;;;;;;;;;18.70;68.60;;;;;;5043160;28;88161;-50
2022/07/10 12:15:37;;;;;;;;;;;18.70;68.50;;;;;;5043627;28;87135;-53
2022/07/10 12:18:03;;;;;;;;;;;18.60;68.40;;;;;;5042305;27;88815;-51
2022/07/10 12:20:29;;;;;;;;;;;18.70;68.40;;;;;;5046124;27;87827;-54
2022/07/10 12:22:55;;;;;;;;;;;18.70;68.40;;;;;;5043491;28;87838;-50
2022/07/10 12:25:21;;;;;;;;;;;18.70;68.40;;;;;;5043002;27;88115;-52
2022/07/10 12:27:47;;;;;;;;;;;18.70;68.50;;;;;;5043326;27;86929;-52
2022/07/10 12:30:12;;;;;;;;;;;18.70;68.40;;;;;;5043127;27;88800;-52
2022/07/10 12:32:38;;;;;;;;;;;18.70;68.40;;;;;;5042430;27;89456;-51
2022/07/10 12:35:05;;;;;;;;;;;18.80;68.60;;;;;;5043808;28;87286;-50
2022/07/10 12:37:31;;;;;;;;;;;18.80;68.40;;;;;;5043071;28;87158;-51
2022/07/10 12:39:57;;;;;;;;;;;18.80;68.30;;;;;;5042862;28;88021;-51
2022/07/10 12:42:25;;;;;;;;;;;18.90;68.30;;;;;;5045237;28;87937;-51
2022/07/10 12:44:51;;;;;;;;;;;18.80;68.30;;;;;;5042629;27;87868;-52
2022/07/10 12:47:19;;;;;;;;;;;18.80;68.30;;;;;;5042368;27;87141;-52
2022/07/10 12:49:47;;;;;;;;;;;18.90;68.20;;;;;;5042548;27;87789;-53
2022/07/10 12:52:23;;;;;;;;;;;18.90;68.10;;;;;;5042646;28;88507;-53
2022/07/10 12:54:49;;;;;;;;;;;19.00;68.10;;;;;;5042892;27;87141;-49
2022/07/10 12:57:14;;;;;;;;;;;19.00;68.10;;;;;;5042587;27;88870;-54
2022/07/10 12:59:41;;;;;;;;;;;19.00;67.90;;;;;;5043021;28;87554;-50
2022/07/10 13:02:19;;;;;;;;;;;19.10;68.10;;;;;;5045367;27;87019;-51
2022/07/10 13:04:55;;;;;;;;;;;19.10;68.00;;;;;;5042088;27;89139;-51
2022/07/10 13:07:28;;;;;;;;;;;19.10;67.80;;;;;;5042137;28;89578;-51
2022/07/10 13:09:53;;;;;;;;;;;19.10;67.80;;;;;;5042764;28;88543;-52
2022/07/10 13:12:19;;;;;;;;;;;19.20;67.70;;;;;;5042313;28;88461;-52
2022/07/10 13:14:45;;;;;;;;;;;19.20;67.80;;;;;;5042479;28;87304;-50
2022/07/10 13:17:10;;;;;;;;;;;19.20;67.70;;;;;;5042407;27;89076;-50
2022/07/10 13:19:36;;;;;;;;;;;19.30;67.70;;;;;;5042327;28;88089;-48
2022/07/10 13:22:01;;;;;;;;;;;19.30;67.60;;;;;;5042678;27;87140;-48
2022/07/10 13:24:27;;;;;;;;;;;19.30;67.60;;;;;;5045749;28;86505;-49
2022/07/10 13:26:55;;;;;;;;;;;19.30;67.40;;;;;;5042376;28;87194;-48
2022/07/10 13:29:21;;;;;;;;;;;19.30;67.70;;;;;;5042273;28;87412;-48
2022/07/10 13:31:47;;;;;;;;;;;19.30;67.80;;;;;;5041224;27;90016;-48
2022/07/10 13:34:12;;;;;;;;;;;19.30;67.90;;;;;;5042605;27;87073;-50
2022/07/10 13:36:38;;;;;;;;;;;19.30;67.70;;;;;;5041365;27;88948;-56
2022/07/10 13:39:03;;;;;;;;;;;19.30;66.90;;;;;;5041999;27;88002;-48
2022/07/10 13:41:29;;;;;;;;;;;19.30;67.30;;;;;;5042470;28;86924;-46
2022/07/10 13:43:55;;;;;;;;;;;19.30;66.50;;;;;;5042198;28;87435;-59
2022/07/10 13:46:20;;;;;;;;;;;19.40;66.30;;;;;;5044359;27;89279;-55
2022/07/10 13:48:46;;;;;;;;;;;19.50;65.10;;;;;;5042548;27;87426;-47
2022/07/10 13:51:12;;;;;;;;;;;19.50;65.70;;;;;;5041584;28;88070;-49
2022/07/10 13:53:37;;;;;;;;;;;19.60;64.60;;;;;;5042374;28;87287;-51
2022/07/10 13:56:07;;;;;;;;;;;19.60;64.70;;;;;;5041483;27;87931;-48
2022/07/10 13:58:34;;;;;;;;;;;19.70;63.50;;;;;;5041759;27;90041;-58
2022/07/10 14:00:59;;;;;;;;;;;19.70;63.90;;;;;;5042971;27;87188;-55
2022/07/10 14:03:25;;;;;;;;;;;19.80;64.20;;;;;;5045640;27;87388;-56
2022/07/10 14:05:51;;;;;;;;;;;19.80;64.50;;;;;;5045014;27;88564;-59
2022/07/10 14:08:16;;;;;;;;;;;19.90;64.70;;;;;;5048375;28;87122;-58
2022/07/10 14:10:42;;;;;;;;;;;19.90;63.30;;;;;;5045224;28;87362;-57
2022/07/10 14:13:08;;;;;;;;;;;20.00;63.80;;;;;;5046038;27;86387;-62
2022/07/10 14:15:35;;;;;;;;;;;20.00;64.30;;;;;;5045631;27;86905;-55
2022/07/10 14:18:00;;;;;;;;;;;20.10;64.50;;;;;;5045265;27;88339;-54
2022/07/10 14:20:26;;;;;;;;;;;20.10;63.90;;;;;;5044756;28;87904;-50
2022/07/10 14:22:51;;;;;;;;;;;20.10;62.60;;;;;;5045338;28;88348;-54
2022/07/10 14:25:18;;;;;;;;;;;20.10;62.60;;;;;;5044805;27;88097;-54
2022/07/10 14:27:44;;;;;;;;;;;20.10;63.60;;;;;;5044908;27;87148;-47